createdAt,value
2023-03-31T00:01:15.373Z,100.00
2023-03-31T00:03:45.171Z,100.00
2023-03-31T00:06:19.268Z,100.00
2023-03-31T00:08:52.784Z,100.00
2023-03-31T00:11:22.846Z,100.00
2023-03-31T00:13:51.780Z,100.00
2023-03-31T00:16:20.726Z,100.00
2023-03-31T00:18:51.683Z,100.00
2023-03-31T00:21:26.055Z,100.00
2023-03-31T00:24:02.635Z,100.00
2023-03-31T00:26:31.694Z,100.00
2023-03-31T00:29:01.356Z,100.00
2023-03-31T00:31:30.281Z,99.12
2023-03-31T00:33:59.081Z,97.68
2023-03-31T00:36:30.748Z,97.37
2023-03-31T00:39:10.302Z,98.48
2023-03-31T00:41:40.066Z,98.58
2023-03-31T00:44:15.604Z,97.88
2023-03-31T00:46:53.897Z,97.90
2023-03-31T00:49:25.752Z,96.95
2023-03-31T00:51:58.481Z,96.92
2023-03-31T00:54:28.617Z,95.44
2023-03-31T00:56:59.463Z,94.16
2023-03-31T00:59:32.544Z,92.38
2023-03-31T01:02:03.749Z,91.90
2023-03-31T01:04:45.516Z,91.87
2023-03-31T01:07:20.576Z,91.90
2023-03-31T01:09:49.948Z,90.69
2023-03-31T01:12:20.185Z,91.44
2023-03-31T01:14:51.880Z,89.87
2023-03-31T01:17:23.318Z,89.26
2023-03-31T01:20:13.217Z,90.12
2023-03-31T01:23:18.073Z,88.35
2023-03-31T01:26:21.807Z,89.14
2023-03-31T01:29:09.632Z,89.90
2023-03-31T01:32:13.111Z,88.89
2023-03-31T01:34:59.492Z,87.01
2023-03-31T01:38:06.397Z,88.11
2023-03-31T01:40:44.380Z,87.21
2023-03-31T01:43:27.840Z,85.75
2023-03-31T01:46:12.643Z,86.53
2023-03-31T01:48:56.157Z,83.39
2023-03-31T01:51:41.636Z,82.87
2023-03-31T01:54:23.886Z,80.82
2023-03-31T01:57:14.889Z,80.03
2023-03-31T02:00:14.747Z,79.81
2023-03-31T02:02:52.548Z,79.45
2023-03-31T02:05:26.834Z,80.22
2023-03-31T02:08:31.275Z,80.60
2023-03-31T02:11:01.442Z,80.71
2023-03-31T02:13:31.859Z,78.01
2023-03-31T02:16:04.253Z,78.30
2023-03-31T02:18:39.151Z,77.77
2023-03-31T02:21:12.109Z,74.87
2023-03-31T02:23:40.956Z,74.62
2023-03-31T02:26:20.871Z,76.16
2023-03-31T02:28:49.622Z,72.72
2023-03-31T02:31:49.048Z,74.30
2023-03-31T02:34:17.754Z,71.32
2023-03-31T02:36:47.108Z,70.78
2023-03-31T02:39:21.110Z,70.95
2023-03-31T02:41:49.573Z,73.59
2023-03-31T02:44:19.090Z,70.33
2023-03-31T02:46:48.524Z,71.18
2023-03-31T02:49:19.257Z,68.27
2023-03-31T02:52:04.294Z,72.63
2023-03-31T02:55:00.430Z,70.53
2023-03-31T02:57:50.974Z,74.15
2023-03-31T03:00:43.953Z,71.93
2023-03-31T03:03:21.031Z,72.29
2023-03-31T03:06:18.066Z,72.08
2023-03-31T03:09:09.882Z,69.73
2023-03-31T03:11:56.364Z,71.47
2023-03-31T03:15:02.436Z,70.29
2023-03-31T03:17:42.379Z,68.39
2023-03-31T03:20:12.235Z,70.14
2023-03-31T03:22:41.703Z,69.86
2023-03-31T03:25:14.219Z,68.77
2023-03-31T03:27:42.686Z,68.26
2023-03-31T03:30:14.865Z,69.02
2023-03-31T03:32:43.913Z,70.69
2023-03-31T03:35:12.619Z,71.58
2023-03-31T03:37:41.189Z,69.82
2023-03-31T03:40:10.513Z,73.82
2023-03-31T03:42:39.542Z,72.82
2023-03-31T03:45:08.986Z,72.87
2023-03-31T03:47:37.523Z,73.33
2023-03-31T03:50:06.426Z,72.90
2023-03-31T03:52:34.896Z,71.16
2023-03-31T03:55:03.313Z,71.91
2023-03-31T03:57:31.865Z,72.32
2023-03-31T04:00:00.320Z,70.43
2023-03-31T04:02:29.644Z,68.97
2023-03-31T04:04:58.168Z,70.59
2023-03-31T04:07:26.618Z,69.02
2023-03-31T04:09:55.064Z,69.73
2023-03-31T04:12:23.463Z,70.37
2023-03-31T04:14:51.905Z,69.07
2023-03-31T04:17:20.491Z,68.41
2023-03-31T04:19:51.775Z,70.07
2023-03-31T04:22:21.572Z,67.00
2023-03-31T04:24:53.672Z,67.84
2023-03-31T04:27:24.029Z,68.54
2023-03-31T04:29:55.810Z,66.72
2023-03-31T04:32:25.078Z,66.81
2023-03-31T04:35:03.573Z,68.17
2023-03-31T04:37:35.601Z,68.01
2023-03-31T04:40:10.850Z,68.38
2023-03-31T04:42:41.249Z,69.08
2023-03-31T04:45:10.460Z,66.81
2023-03-31T04:47:39.148Z,69.44
2023-03-31T04:50:10.381Z,67.90
2023-03-31T04:52:41.766Z,69.17
2023-03-31T04:55:10.773Z,68.37
2023-03-31T04:57:39.258Z,68.88
2023-03-31T05:00:08.925Z,69.86
2023-03-31T05:02:37.550Z,67.75
2023-03-31T05:05:06.998Z,66.76
2023-03-31T05:07:35.521Z,68.67
2023-03-31T05:10:04.194Z,66.70
2023-03-31T05:12:37.009Z,66.80
2023-03-31T05:15:08.048Z,68.48
2023-03-31T05:17:37.864Z,65.93
2023-03-31T05:20:08.776Z,65.83
2023-03-31T05:22:43.365Z,65.92
2023-03-31T05:25:19.552Z,67.42
2023-03-31T05:27:49.642Z,66.91
2023-03-31T05:30:19.327Z,66.41
2023-03-31T05:32:47.849Z,64.56
2023-03-31T05:35:16.325Z,64.68
2023-03-31T05:37:45.009Z,66.28
2023-03-31T05:40:13.977Z,65.40
2023-03-31T05:42:42.889Z,61.57
2023-03-31T05:45:11.565Z,62.80
2023-03-31T05:47:40.123Z,62.99
2023-03-31T05:50:10.891Z,60.43
2023-03-31T05:52:40.479Z,62.41
2023-03-31T05:55:09.554Z,62.03
2023-03-31T05:57:38.022Z,63.34
2023-03-31T06:00:07.596Z,64.08
2023-03-31T06:02:36.199Z,61.60
2023-03-31T06:05:04.919Z,60.50
2023-03-31T06:07:33.464Z,58.93
2023-03-31T06:10:01.941Z,60.02
2023-03-31T06:12:30.452Z,62.68
2023-03-31T06:14:59.028Z,58.45
2023-03-31T06:17:27.524Z,56.57
2023-03-31T06:19:56.823Z,58.79
2023-03-31T06:22:25.357Z,62.12
2023-03-31T06:24:53.820Z,56.68
2023-03-31T06:27:22.479Z,59.46
2023-03-31T06:29:51.351Z,59.09
2023-03-31T06:32:19.770Z,62.02
2023-03-31T06:34:48.352Z,59.24
2023-03-31T06:37:16.807Z,60.84
2023-03-31T06:39:45.768Z,62.29
2023-03-31T06:42:14.232Z,62.62
2023-03-31T06:44:42.855Z,58.65
2023-03-31T06:47:11.494Z,60.31
2023-03-31T06:49:39.888Z,61.91
2023-03-31T06:52:08.383Z,62.47
2023-03-31T06:54:36.905Z,63.74
2023-03-31T06:57:05.333Z,64.97
2023-03-31T06:59:33.759Z,62.91
2023-03-31T07:02:03.110Z,60.02
2023-03-31T07:04:31.654Z,63.38
2023-03-31T07:07:00.768Z,62.21
2023-03-31T07:09:29.200Z,63.68
2023-03-31T07:11:57.572Z,61.48
2023-03-31T07:14:26.076Z,62.77
2023-03-31T07:16:54.559Z,61.87
2023-03-31T07:19:23.917Z,61.69
2023-03-31T07:21:52.444Z,59.88
2023-03-31T07:24:21.346Z,56.05
2023-03-31T07:26:50.024Z,59.33
2023-03-31T07:29:18.459Z,58.82
2023-03-31T07:31:49.230Z,55.63
2023-03-31T07:34:17.730Z,59.56
2023-03-31T07:36:46.188Z,59.47
2023-03-31T07:39:14.762Z,60.71
2023-03-31T07:41:44.254Z,60.69
2023-03-31T07:44:12.698Z,61.00
2023-03-31T07:46:41.743Z,58.70
2023-03-31T07:49:11.414Z,57.43
2023-03-31T07:51:39.826Z,59.56
2023-03-31T07:54:08.285Z,56.48
2023-03-31T07:56:36.701Z,58.17
2023-03-31T07:59:05.164Z,59.76
2023-03-31T08:01:33.857Z,59.18
2023-03-31T08:04:03.123Z,58.46
2023-03-31T08:06:31.727Z,59.93
2023-03-31T08:09:00.639Z,60.34
2023-03-31T08:11:29.355Z,59.03
2023-03-31T08:13:57.776Z,59.28
2023-03-31T08:16:28.094Z,62.27
2023-03-31T08:18:56.546Z,59.54
2023-03-31T08:21:24.960Z,58.14
2023-03-31T08:23:56.227Z,62.13
2023-03-31T08:26:26.461Z,62.37
2023-03-31T08:28:55.046Z,64.45
2023-03-31T08:31:27.141Z,64.28
2023-03-31T08:33:56.381Z,64.11
2023-03-31T08:36:24.745Z,62.25
2023-03-31T08:38:53.176Z,62.55
2023-03-31T08:41:47.898Z,62.35
2023-03-31T08:44:39.915Z,61.73
2023-03-31T08:47:17.189Z,61.61
2023-03-31T08:50:13.408Z,62.88
2023-03-31T08:52:50.646Z,61.95
2023-03-31T08:55:29.231Z,60.43
2023-03-31T08:58:07.538Z,65.78
2023-03-31T09:00:52.965Z,66.10
2023-03-31T09:03:45.868Z,65.56
2023-03-31T09:06:23.822Z,65.71
2023-03-31T09:08:58.436Z,65.77
2023-03-31T09:11:41.843Z,66.92
2023-03-31T09:14:32.597Z,68.53
2023-03-31T09:17:22.922Z,69.45
2023-03-31T09:20:23.372Z,69.33
2023-03-31T09:23:04.555Z,70.19
2023-03-31T09:25:37.384Z,69.84
2023-03-31T09:28:15.696Z,64.95
2023-03-31T09:30:44.890Z,64.77
2023-03-31T09:33:20.180Z,64.64
2023-03-31T09:35:50.001Z,64.47
2023-03-31T09:38:20.526Z,67.65
2023-03-31T09:40:49.928Z,68.17
2023-03-31T09:43:27.090Z,67.80
2023-03-31T09:48:32.402Z,67.79
2023-03-31T09:51:04.592Z,66.20
2023-03-31T09:53:48.390Z,67.86
2023-03-31T09:56:34.741Z,67.00
2023-03-31T09:59:04.887Z,67.05
2023-03-31T10:01:34.144Z,68.72
2023-03-31T10:04:06.531Z,68.03
2023-03-31T10:06:41.777Z,67.01
2023-03-31T10:09:12.889Z,66.51
2023-03-31T10:11:52.539Z,67.06
2023-03-31T10:14:28.279Z,68.97
2023-03-31T10:16:58.569Z,67.68
2023-03-31T10:19:34.169Z,66.40
2023-03-31T10:22:07.443Z,66.45
2023-03-31T10:24:41.893Z,64.93
2023-03-31T10:27:24.035Z,65.49
2023-03-31T10:30:00.888Z,64.94
2023-03-31T10:32:35.126Z,65.18
2023-03-31T10:35:37.052Z,65.15
2023-03-31T10:38:12.104Z,65.88
2023-03-31T10:40:51.113Z,65.31
2023-03-31T10:43:28.405Z,65.97
2023-03-31T10:45:59.353Z,68.53
2023-03-31T10:48:39.661Z,68.36
2023-03-31T10:51:23.149Z,70.82
2023-03-31T10:53:53.653Z,71.85
2023-03-31T10:56:51.386Z,70.63
2023-03-31T10:59:30.678Z,69.88
2023-03-31T11:02:23.408Z,70.22
2023-03-31T11:05:23.387Z,70.11
2023-03-31T11:08:06.796Z,70.99
2023-03-31T11:11:13.411Z,70.38
2023-03-31T11:14:17.115Z,69.54
2023-03-31T11:16:54.700Z,69.30
2023-03-31T11:19:49.152Z,69.23
2023-03-31T11:22:42.243Z,69.65
2023-03-31T11:25:15.178Z,69.69
2023-03-31T11:28:21.973Z,69.26
2023-03-31T11:31:13.471Z,69.34
2023-03-31T11:34:00.153Z,69.77
2023-03-31T11:36:37.839Z,70.40
2023-03-31T11:39:16.397Z,70.96
2023-03-31T11:41:56.967Z,71.16
2023-03-31T11:44:40.005Z,71.61
2023-03-31T11:47:16.476Z,71.92
2023-03-31T11:49:55.770Z,72.05
2023-03-31T11:52:30.281Z,71.48
2023-03-31T11:55:08.907Z,73.00
2023-03-31T11:58:03.660Z,73.42
2023-03-31T12:00:37.708Z,73.67
2023-03-31T12:03:18.918Z,72.72
2023-03-31T12:05:55.032Z,72.02
2023-03-31T12:08:32.485Z,71.85
2023-03-31T12:11:12.276Z,72.50
2023-03-31T12:14:03.637Z,71.71
2023-03-31T12:17:15.635Z,71.85
2023-03-31T12:19:49.595Z,74.53
2023-03-31T12:22:30.524Z,73.85
2023-03-31T12:24:59.538Z,74.35
2023-03-31T12:27:39.309Z,74.96
2023-03-31T12:30:17.748Z,75.32
2023-03-31T12:32:52.742Z,75.28
2023-03-31T12:35:36.089Z,74.95
2023-03-31T12:38:27.134Z,75.11
2023-03-31T12:41:08.542Z,75.38
2023-03-31T12:43:57.089Z,74.69
2023-03-31T12:46:37.332Z,74.10
2023-03-31T12:49:15.329Z,73.47
2023-03-31T12:52:01.977Z,74.14
2023-03-31T12:55:00.956Z,74.71
2023-03-31T12:57:29.595Z,74.34
2023-03-31T13:00:18.141Z,74.85
2023-03-31T13:02:46.794Z,73.98
2023-03-31T13:05:39.819Z,73.36
2023-03-31T13:08:11.754Z,73.98
2023-03-31T13:10:59.973Z,74.27
2023-03-31T13:13:28.689Z,74.50
2023-03-31T13:16:00.828Z,74.17
2023-03-31T13:18:33.923Z,73.32
2023-03-31T13:21:05.844Z,72.92
2023-03-31T13:23:38.662Z,73.05
2023-03-31T13:26:07.955Z,73.44
2023-03-31T13:28:44.892Z,71.49
2023-03-31T13:31:15.856Z,71.47
2023-03-31T13:33:48.930Z,72.84
2023-03-31T13:36:26.116Z,72.51
2023-03-31T13:39:48.089Z,71.87
2023-03-31T13:42:51.935Z,72.61
2023-03-31T13:45:53.394Z,72.96
2023-03-31T13:48:45.465Z,72.63
2023-03-31T13:51:24.849Z,72.86
2023-03-31T13:54:21.592Z,72.39
2023-03-31T13:57:28.033Z,73.06
2023-03-31T14:00:15.267Z,72.99
2023-03-31T14:03:20.747Z,73.55
2023-03-31T14:06:06.558Z,72.63
2023-03-31T14:08:46.745Z,73.91
2023-03-31T14:11:32.636Z,72.79
2023-03-31T14:14:05.129Z,73.37
2023-03-31T14:16:41.128Z,75.60
2023-03-31T14:19:28.346Z,76.62
2023-03-31T14:22:08.162Z,77.48
2023-03-31T14:24:57.598Z,77.66
2023-03-31T14:27:48.236Z,76.45
2023-03-31T14:30:39.560Z,75.86
2023-03-31T14:33:38.124Z,75.69
2023-03-31T14:36:39.150Z,75.86
2023-03-31T14:39:12.118Z,75.21
2023-03-31T14:41:41.076Z,73.93
2023-03-31T14:44:15.804Z,74.11
2023-03-31T14:46:44.287Z,74.20
2023-03-31T14:49:38.003Z,73.28
2023-03-31T14:52:21.353Z,75.75
2023-03-31T14:54:49.830Z,77.09
2023-03-31T14:57:27.435Z,76.83
2023-03-31T14:59:56.811Z,77.85
2023-03-31T15:02:34.416Z,77.85
2023-03-31T15:05:12.186Z,76.84
2023-03-31T15:07:42.875Z,77.52
2023-03-31T15:10:21.634Z,76.78
2023-03-31T15:12:52.758Z,77.17
2023-03-31T15:15:22.325Z,74.67
2023-03-31T15:17:50.907Z,75.58
2023-03-31T15:20:31.902Z,75.95
2023-03-31T15:23:19.507Z,73.61
2023-03-31T15:25:48.421Z,73.13
2023-03-31T15:28:19.457Z,73.86
2023-03-31T15:30:59.715Z,72.49
2023-03-31T15:33:42.322Z,74.21
2023-03-31T15:36:13.893Z,74.74
2023-03-31T15:38:42.976Z,72.66
2023-03-31T15:41:17.853Z,74.20
2023-03-31T15:43:47.604Z,74.48
2023-03-31T15:46:48.003Z,73.72
2023-03-31T15:49:25.432Z,74.98
2023-03-31T15:52:01.549Z,74.57
2023-03-31T15:54:42.467Z,74.96
2023-03-31T15:57:15.952Z,75.40
2023-03-31T15:59:56.348Z,73.85
2023-03-31T16:02:28.844Z,73.52
2023-03-31T16:05:00.190Z,72.42
2023-03-31T16:07:33.846Z,70.73
2023-03-31T16:10:16.478Z,71.25
2023-03-31T16:13:02.252Z,70.05
2023-03-31T16:15:43.349Z,70.79
2023-03-31T16:18:18.821Z,71.90
2023-03-31T16:20:57.234Z,70.60
2023-03-31T16:23:32.455Z,71.43
2023-03-31T16:26:02.687Z,74.58
2023-03-31T16:28:35.026Z,75.14
2023-03-31T16:31:04.523Z,73.77
2023-03-31T16:33:53.605Z,73.99
2023-03-31T16:36:22.034Z,75.24
2023-03-31T16:38:54.818Z,76.06
2023-03-31T16:41:28.024Z,76.18
2023-03-31T16:43:56.891Z,75.69
2023-03-31T16:46:26.198Z,76.94
2023-03-31T16:48:55.279Z,77.88
2023-03-31T16:51:24.205Z,78.54
2023-03-31T16:53:52.709Z,79.63
2023-03-31T16:56:22.020Z,78.65
2023-03-31T16:58:50.953Z,78.83
2023-03-31T17:01:19.374Z,78.48
2023-03-31T17:03:49.494Z,77.35
2023-03-31T17:06:18.118Z,76.71
2023-03-31T17:08:46.713Z,76.84
2023-03-31T17:11:15.980Z,76.14
2023-03-31T17:13:45.644Z,76.95
2023-03-31T17:16:21.929Z,74.59
2023-03-31T17:18:55.843Z,74.93
2023-03-31T17:21:24.731Z,73.34
2023-03-31T17:23:53.255Z,74.73
2023-03-31T17:26:22.987Z,75.50
2023-03-31T17:28:51.526Z,75.07
2023-03-31T17:31:22.446Z,75.24
2023-03-31T17:33:50.981Z,75.63
2023-03-31T17:36:19.495Z,75.06
2023-03-31T17:38:48.043Z,76.06
2023-03-31T17:41:18.625Z,76.34
2023-03-31T17:43:48.421Z,77.74
2023-03-31T17:46:18.928Z,77.97
2023-03-31T17:48:47.508Z,75.53
2023-03-31T17:51:18.746Z,75.23
2023-03-31T17:53:48.868Z,75.75
2023-03-31T17:56:20.583Z,75.08
2023-03-31T17:58:48.982Z,74.29
2023-03-31T18:01:17.486Z,74.63
2023-03-31T18:03:47.221Z,73.92
2023-03-31T18:06:16.686Z,74.34
2023-03-31T18:08:45.450Z,74.04
2023-03-31T18:11:14.397Z,75.49
2023-03-31T18:13:42.982Z,75.22
2023-03-31T18:16:14.187Z,74.85
2023-03-31T18:18:43.360Z,75.30
2023-03-31T18:21:14.646Z,75.27
2023-03-31T18:23:43.615Z,76.67
2023-03-31T18:26:15.118Z,76.47
2023-03-31T18:28:43.515Z,77.32
2023-03-31T18:31:13.347Z,78.47
2023-03-31T18:33:42.898Z,80.35
2023-03-31T18:36:20.741Z,80.84
2023-03-31T18:38:51.052Z,81.88
2023-03-31T18:41:20.209Z,81.58
2023-03-31T18:43:55.069Z,81.66
2023-03-31T18:46:23.676Z,83.00
2023-03-31T18:48:52.328Z,83.32
2023-03-31T18:51:21.070Z,81.40
2023-03-31T18:53:49.536Z,81.40
2023-03-31T18:56:17.997Z,80.11
2023-03-31T18:58:46.456Z,81.13
2023-03-31T19:01:14.941Z,80.81
2023-03-31T19:03:45.369Z,80.54
2023-03-31T19:06:14.304Z,80.79
2023-03-31T19:08:42.770Z,82.09
2023-03-31T19:11:13.880Z,82.03
2023-03-31T19:13:43.841Z,82.19
2023-03-31T19:16:14.576Z,83.53
2023-03-31T19:18:44.582Z,80.83
2023-03-31T19:21:13.385Z,78.52
2023-03-31T19:23:41.893Z,78.32
2023-03-31T19:26:15.267Z,77.94
2023-03-31T19:28:44.175Z,77.53
2023-03-31T19:31:13.180Z,77.28
2023-03-31T19:33:42.287Z,77.49
2023-03-31T19:36:11.506Z,76.99
2023-03-31T19:38:40.151Z,77.19
2023-03-31T19:41:08.823Z,76.69
2023-03-31T19:43:37.221Z,76.93
2023-03-31T19:46:05.695Z,78.25
2023-03-31T19:48:34.705Z,77.15
2023-03-31T19:51:07.085Z,76.92
2023-03-31T19:53:37.819Z,76.70
2023-03-31T19:56:09.964Z,76.62
2023-03-31T19:58:38.822Z,77.17
2023-03-31T20:01:19.064Z,77.39
2023-03-31T20:03:47.887Z,78.13
2023-03-31T20:06:16.597Z,76.97
2023-03-31T20:08:45.265Z,78.14
2023-03-31T20:11:15.732Z,77.28
2023-03-31T20:13:45.267Z,77.34
2023-03-31T20:16:17.604Z,77.28
2023-03-31T20:18:50.283Z,76.70
2023-03-31T20:21:21.391Z,77.45
2023-03-31T20:23:50.340Z,77.34
2023-03-31T20:26:21.743Z,76.50
2023-03-31T20:28:50.271Z,76.36
2023-03-31T20:31:22.025Z,76.76
2023-03-31T20:33:52.280Z,76.55
2023-03-31T20:36:23.295Z,76.97
2023-03-31T20:38:54.137Z,76.44
2023-03-31T20:41:25.380Z,76.45
2023-03-31T20:43:55.759Z,76.17
2023-03-31T20:46:24.651Z,76.31
2023-03-31T20:48:56.836Z,76.19
2023-03-31T20:51:30.914Z,76.16
2023-03-31T20:54:01.271Z,75.97
2023-03-31T20:56:37.937Z,76.80
2023-03-31T20:59:08.391Z,76.84
2023-03-31T21:01:38.269Z,76.46
2023-03-31T21:04:08.762Z,76.69
2023-03-31T21:06:42.896Z,77.09
2023-03-31T21:09:13.221Z,77.31
2023-03-31T21:11:42.509Z,77.84
2023-03-31T21:14:19.574Z,77.27
2023-03-31T21:16:48.015Z,77.09
2023-03-31T21:19:16.458Z,77.09
2023-03-31T21:21:44.858Z,77.36
2023-03-31T21:24:14.310Z,77.73
2023-03-31T21:26:43.082Z,77.19
2023-03-31T21:29:11.727Z,76.88
2023-03-31T21:31:40.294Z,77.40
2023-03-31T21:34:09.045Z,78.18
2023-03-31T21:36:37.567Z,78.51
2023-03-31T21:39:06.515Z,77.44
2023-03-31T21:41:35.106Z,77.18
2023-03-31T21:44:04.166Z,77.48
2023-03-31T21:46:34.588Z,77.86
2023-03-31T21:49:05.449Z,79.04
2023-03-31T21:51:33.883Z,78.93
2023-03-31T21:54:02.391Z,79.69
2023-03-31T21:56:32.352Z,79.88
2023-03-31T21:59:02.107Z,79.68
2023-03-31T22:01:30.934Z,79.51
2023-03-31T22:04:00.597Z,78.47
2023-03-31T22:06:29.736Z,80.14
2023-03-31T22:08:58.226Z,80.52
2023-03-31T22:11:27.680Z,79.86
2023-03-31T22:13:56.294Z,79.57
2023-03-31T22:16:25.217Z,79.84
2023-03-31T22:18:55.253Z,80.44
2023-03-31T22:21:26.457Z,80.50
2023-03-31T22:24:00.772Z,81.72
2023-03-31T22:26:31.040Z,82.32
2023-03-31T22:28:59.849Z,82.17
2023-03-31T22:31:29.149Z,83.19
2023-03-31T22:33:57.671Z,84.55
2023-03-31T22:36:26.120Z,83.46
2023-03-31T22:38:54.576Z,83.34
2023-03-31T22:41:23.372Z,83.20
2023-03-31T22:43:52.471Z,84.63
2023-03-31T22:46:20.966Z,83.73
2023-03-31T22:48:52.389Z,84.38
2023-03-31T22:51:20.812Z,84.60
2023-03-31T22:53:53.622Z,85.17
2023-03-31T22:56:23.979Z,84.99
2023-03-31T22:58:53.270Z,84.49
2023-03-31T23:01:22.830Z,85.86
2023-03-31T23:03:51.722Z,86.10
2023-03-31T23:06:20.460Z,85.80
2023-03-31T23:08:53.517Z,86.23
2023-03-31T23:11:22.103Z,84.80
2023-03-31T23:13:50.497Z,83.62
2023-03-31T23:16:22.248Z,83.64
2023-03-31T23:18:53.525Z,83.49
2023-03-31T23:21:28.406Z,82.03
2023-03-31T23:23:59.597Z,83.17
2023-03-31T23:26:29.394Z,83.39
2023-03-31T23:28:58.589Z,82.62
2023-03-31T23:31:33.659Z,82.07
2023-03-31T23:34:02.660Z,83.50
2023-03-31T23:36:31.994Z,83.68
2023-03-31T23:39:00.400Z,82.21
2023-03-31T23:41:28.962Z,82.74
2023-03-31T23:43:58.584Z,82.42
2023-03-31T23:46:27.540Z,82.07
2023-03-31T23:48:56.705Z,83.79
2023-03-31T23:51:25.739Z,83.49
2023-03-31T23:53:54.343Z,83.93
2023-03-31T23:56:23.267Z,83.78
2023-03-31T23:58:51.905Z,83.57
